createdAt,value
2023-01-19T00:00:08.841Z,9.07
2023-01-19T00:02:35.480Z,9.20
2023-01-19T00:05:02.099Z,9.18
2023-01-19T00:07:28.727Z,9.16
2023-01-19T00:09:55.383Z,9.06
2023-01-19T00:12:22.108Z,8.90
2023-01-19T00:14:48.758Z,9.02
2023-01-19T00:17:15.386Z,8.95
2023-01-19T00:19:42.028Z,8.88
2023-01-19T00:22:08.644Z,8.89
2023-01-19T00:24:35.255Z,9.03
2023-01-19T00:27:01.877Z,9.09
2023-01-19T00:29:28.526Z,9.25
2023-01-19T00:31:55.174Z,8.96
2023-01-19T00:34:21.780Z,9.05
2023-01-19T00:36:48.408Z,8.99
2023-01-19T00:39:14.983Z,9.04
2023-01-19T00:41:41.595Z,8.98
2023-01-19T00:44:08.241Z,8.78
2023-01-19T00:46:34.825Z,8.76
2023-01-19T00:49:01.489Z,8.78
2023-01-19T00:51:28.079Z,8.76
2023-01-19T00:53:54.739Z,8.60
2023-01-19T00:56:21.351Z,8.66
2023-01-19T00:58:47.952Z,8.59
2023-01-19T01:01:14.722Z,8.56
2023-01-19T01:03:41.440Z,8.75
2023-01-19T01:06:08.031Z,8.35
2023-01-19T01:08:34.673Z,8.43
2023-01-19T01:11:01.309Z,8.59
2023-01-19T01:13:28.393Z,8.77
2023-01-19T01:15:55.756Z,8.84
2023-01-19T01:18:22.724Z,8.75
2023-01-19T01:20:49.384Z,8.66
2023-01-19T01:23:16.020Z,8.73
2023-01-19T01:25:42.627Z,8.41
2023-01-19T01:28:09.198Z,8.32
2023-01-19T01:30:35.957Z,8.47
2023-01-19T01:33:02.830Z,8.56
2023-01-19T01:35:29.909Z,8.49
2023-01-19T01:37:56.894Z,8.59
2023-01-19T01:40:23.557Z,8.26
2023-01-19T01:42:50.221Z,8.30
2023-01-19T01:45:16.951Z,7.89
2023-01-19T01:47:43.758Z,7.96
2023-01-19T01:50:10.390Z,8.13
2023-01-19T01:52:37.029Z,8.18
2023-01-19T01:55:03.626Z,8.48
2023-01-19T01:57:30.224Z,8.43
2023-01-19T01:59:56.899Z,8.34
2023-01-19T02:02:24.141Z,8.45
2023-01-19T02:04:51.064Z,8.47
2023-01-19T02:07:17.654Z,8.58
2023-01-19T02:09:44.512Z,8.65
2023-01-19T02:12:11.124Z,8.72
2023-01-19T02:14:37.735Z,8.75
2023-01-19T02:17:04.319Z,8.76
2023-01-19T02:19:30.930Z,8.70
2023-01-19T02:21:57.526Z,8.71
2023-01-19T02:24:24.152Z,8.50
2023-01-19T02:26:50.752Z,8.49
2023-01-19T02:29:17.331Z,8.56
2023-01-19T02:31:43.948Z,8.23
2023-01-19T02:34:10.587Z,8.28
2023-01-19T02:36:37.185Z,8.57
2023-01-19T02:39:03.771Z,8.66
2023-01-19T02:41:30.365Z,8.37
2023-01-19T02:43:56.973Z,8.19
2023-01-19T02:46:23.629Z,8.35
2023-01-19T02:48:50.254Z,8.41
2023-01-19T02:51:16.895Z,8.15
2023-01-19T02:53:43.509Z,8.20
2023-01-19T02:56:10.134Z,8.30
2023-01-19T02:58:36.780Z,8.25
2023-01-19T03:01:03.521Z,8.30
2023-01-19T03:03:30.215Z,8.41
2023-01-19T03:05:56.842Z,8.42
2023-01-19T03:08:23.460Z,8.38
2023-01-19T03:10:50.079Z,8.56
2023-01-19T03:13:16.668Z,8.44
2023-01-19T03:15:43.309Z,8.29
2023-01-19T03:18:09.956Z,8.61
2023-01-19T03:20:36.594Z,8.42
2023-01-19T03:23:03.719Z,8.14
2023-01-19T03:25:30.493Z,8.30
2023-01-19T03:27:57.121Z,8.44
2023-01-19T03:30:23.749Z,8.45
2023-01-19T03:32:50.375Z,8.28
2023-01-19T03:35:16.961Z,8.21
2023-01-19T03:37:43.550Z,8.30
2023-01-19T03:40:10.135Z,8.24
2023-01-19T03:42:36.782Z,8.26
2023-01-19T03:45:03.439Z,8.34
2023-01-19T03:47:30.118Z,8.12
2023-01-19T03:49:56.902Z,8.03
2023-01-19T03:52:23.521Z,8.03
2023-01-19T03:54:50.161Z,7.96
2023-01-19T03:57:16.814Z,7.93
2023-01-19T03:59:43.495Z,7.86
2023-01-19T04:02:10.163Z,7.61
2023-01-19T04:04:36.791Z,7.59
2023-01-19T04:07:03.410Z,7.93
2023-01-19T04:09:30.036Z,8.05
2023-01-19T04:11:56.660Z,8.25
2023-01-19T04:14:23.268Z,8.03
2023-01-19T04:16:49.913Z,7.85
2023-01-19T04:19:16.552Z,7.76
2023-01-19T04:21:43.199Z,7.94
2023-01-19T04:24:09.795Z,7.84
2023-01-19T04:26:36.382Z,7.65
2023-01-19T04:29:02.984Z,7.78
2023-01-19T04:31:29.691Z,8.04
2023-01-19T04:33:56.341Z,7.92
2023-01-19T04:36:23.006Z,7.90
2023-01-19T04:38:49.680Z,8.05
2023-01-19T04:41:16.300Z,8.07
2023-01-19T04:43:42.929Z,8.19
2023-01-19T04:46:09.590Z,8.07
2023-01-19T04:48:36.233Z,7.56
2023-01-19T04:51:02.852Z,7.58
2023-01-19T04:53:29.491Z,7.48
2023-01-19T04:55:56.133Z,7.75
2023-01-19T04:58:22.797Z,7.48
2023-01-19T05:00:49.459Z,7.65
2023-01-19T05:03:16.200Z,7.33
2023-01-19T05:05:42.885Z,7.33
2023-01-19T05:08:09.459Z,7.38
2023-01-19T05:10:36.104Z,7.16
2023-01-19T05:13:03.007Z,6.91
2023-01-19T05:15:29.802Z,7.25
2023-01-19T05:17:56.364Z,7.60
2023-01-19T05:20:22.975Z,7.66
2023-01-19T05:22:49.630Z,7.78
2023-01-19T05:25:16.249Z,7.64
2023-01-19T05:27:42.836Z,7.26
2023-01-19T05:30:09.520Z,7.07
2023-01-19T05:32:36.193Z,7.21
2023-01-19T05:35:02.898Z,7.30
2023-01-19T05:37:29.492Z,7.33
2023-01-19T05:39:56.147Z,7.45
2023-01-19T05:42:22.827Z,7.28
2023-01-19T05:44:49.682Z,7.60
2023-01-19T05:47:16.370Z,7.62
2023-01-19T05:49:42.980Z,7.72
2023-01-19T05:52:09.615Z,7.68
2023-01-19T05:54:36.237Z,7.85
2023-01-19T05:57:03.119Z,7.72
2023-01-19T05:59:29.802Z,7.69
2023-01-19T06:01:56.422Z,7.48
2023-01-19T06:04:23.072Z,7.25
2023-01-19T06:06:49.667Z,7.35
2023-01-19T06:09:16.297Z,7.39
2023-01-19T06:11:42.996Z,6.96
2023-01-19T06:14:09.615Z,6.85
2023-01-19T06:16:36.421Z,6.80
2023-01-19T06:19:03.059Z,7.25
2023-01-19T06:21:29.751Z,7.56
2023-01-19T06:23:56.477Z,7.29
2023-01-19T06:26:23.155Z,7.59
2023-01-19T06:28:49.779Z,7.75
2023-01-19T06:31:16.600Z,7.69
2023-01-19T06:33:43.406Z,7.75
2023-01-19T06:36:10.029Z,7.65
2023-01-19T06:38:36.677Z,7.89
2023-01-19T06:41:03.412Z,7.69
2023-01-19T06:43:30.109Z,7.85
2023-01-19T06:45:56.764Z,7.74
2023-01-19T06:48:23.534Z,7.75
2023-01-19T06:50:50.406Z,8.09
2023-01-19T06:53:17.048Z,7.86
2023-01-19T06:55:43.650Z,7.91
2023-01-19T06:58:10.276Z,8.08
2023-01-19T07:00:37.221Z,8.16
2023-01-19T07:03:04.412Z,8.15
2023-01-19T07:05:31.288Z,8.06
2023-01-19T07:07:57.902Z,8.02
2023-01-19T07:10:24.520Z,8.16
2023-01-19T07:12:51.152Z,8.25
2023-01-19T07:15:17.948Z,8.28
2023-01-19T07:17:44.538Z,8.44
2023-01-19T07:20:11.161Z,8.26
2023-01-19T07:22:37.743Z,8.34
2023-01-19T07:25:04.402Z,8.26
2023-01-19T07:27:31.085Z,8.45
2023-01-19T07:29:57.728Z,8.42
2023-01-19T07:32:24.386Z,8.31
2023-01-19T07:34:50.998Z,8.42
2023-01-19T07:37:17.636Z,8.34
2023-01-19T07:39:44.222Z,8.52
2023-01-19T07:42:10.801Z,8.14
2023-01-19T07:44:37.425Z,8.20
2023-01-19T07:47:04.071Z,8.04
2023-01-19T07:49:30.667Z,8.18
2023-01-19T07:51:57.308Z,8.37
2023-01-19T07:54:23.941Z,8.49
2023-01-19T07:56:50.628Z,8.16
2023-01-19T07:59:17.246Z,8.49
2023-01-19T08:01:44.029Z,8.35
2023-01-19T08:04:10.773Z,8.26
2023-01-19T08:06:37.436Z,8.56
2023-01-19T08:09:04.012Z,8.69
2023-01-19T08:11:30.649Z,8.76
2023-01-19T08:13:57.283Z,8.42
2023-01-19T08:16:23.926Z,8.70
2023-01-19T08:18:50.578Z,8.84
2023-01-19T08:21:17.235Z,8.88
2023-01-19T08:23:43.896Z,9.09
2023-01-19T08:26:10.625Z,9.24
2023-01-19T08:28:37.255Z,9.15
2023-01-19T08:31:18.979Z,8.97
2023-01-19T08:33:46.937Z,8.80
2023-01-19T08:36:13.662Z,8.76
2023-01-19T08:38:40.267Z,8.97
2023-01-19T08:41:06.931Z,9.07
2023-01-19T08:43:35.338Z,8.93
2023-01-19T08:46:02.130Z,8.84
2023-01-19T08:48:28.708Z,9.09
2023-01-19T08:50:55.377Z,8.89
2023-01-19T08:53:21.948Z,8.66
2023-01-19T08:55:48.538Z,8.76
2023-01-19T08:58:15.111Z,8.88
2023-01-19T09:00:41.739Z,9.19
2023-01-19T09:03:09.532Z,8.67
2023-01-19T09:05:36.144Z,8.90
2023-01-19T09:08:02.989Z,9.04
2023-01-19T09:10:29.915Z,9.13
2023-01-19T09:12:56.500Z,9.34
2023-01-19T09:15:23.098Z,9.34
2023-01-19T09:17:49.674Z,9.29
2023-01-19T09:20:16.313Z,9.33
2023-01-19T09:22:42.931Z,9.23
2023-01-19T09:25:09.580Z,9.28
2023-01-19T09:27:36.260Z,9.29
2023-01-19T09:30:02.840Z,9.14
2023-01-19T09:32:29.436Z,8.75
2023-01-19T09:34:56.040Z,8.72
2023-01-19T09:37:22.913Z,9.28
2023-01-19T09:39:49.624Z,9.52
2023-01-19T09:42:16.310Z,9.53
2023-01-19T09:44:42.966Z,9.28
2023-01-19T09:47:09.636Z,9.51
2023-01-19T09:49:36.251Z,9.53
2023-01-19T09:52:02.918Z,9.51
2023-01-19T09:54:29.600Z,9.79
2023-01-19T09:56:56.246Z,9.88
2023-01-19T09:59:22.824Z,9.69
2023-01-19T10:01:49.526Z,9.97
2023-01-19T10:04:16.151Z,9.67
2023-01-19T10:06:42.758Z,9.11
2023-01-19T10:09:09.367Z,8.96
2023-01-19T10:11:51.571Z,9.20
2023-01-19T10:14:18.924Z,9.62
2023-01-19T10:16:45.702Z,9.80
2023-01-19T10:19:12.349Z,9.84
2023-01-19T10:21:39.575Z,9.84
2023-01-19T10:24:06.198Z,9.59
2023-01-19T10:26:33.947Z,9.42
2023-01-19T10:29:00.623Z,9.80
2023-01-19T10:31:27.446Z,9.82
2023-01-19T10:33:54.293Z,9.97
2023-01-19T10:36:21.016Z,9.91
2023-01-19T10:38:47.649Z,9.67
2023-01-19T10:41:14.297Z,9.50
2023-01-19T10:43:40.937Z,9.62
2023-01-19T10:46:07.670Z,9.70
2023-01-19T10:48:34.349Z,9.73
2023-01-19T10:51:00.955Z,9.58
2023-01-19T10:53:27.587Z,9.70
2023-01-19T10:55:54.226Z,9.81
2023-01-19T10:58:20.824Z,9.83
2023-01-19T11:00:47.479Z,9.89
2023-01-19T11:03:14.210Z,10.07
2023-01-19T11:05:40.810Z,10.12
2023-01-19T11:08:07.416Z,10.09
2023-01-19T11:10:34.158Z,9.94
2023-01-19T11:13:01.140Z,9.16
2023-01-19T11:15:28.140Z,9.23
2023-01-19T11:17:54.798Z,9.57
2023-01-19T11:20:21.421Z,9.25
2023-01-19T11:22:48.882Z,9.37
2023-01-19T11:25:15.665Z,9.46
2023-01-19T11:27:42.252Z,9.40
2023-01-19T11:30:08.885Z,9.49
2023-01-19T11:32:35.943Z,9.23
2023-01-19T11:35:02.689Z,8.78
2023-01-19T11:37:29.610Z,8.78
2023-01-19T11:39:56.354Z,8.90
2023-01-19T11:42:23.037Z,8.49
2023-01-19T11:44:49.727Z,8.53
2023-01-19T11:47:16.646Z,8.68
2023-01-19T11:49:43.448Z,8.41
2023-01-19T11:52:10.123Z,8.54
2023-01-19T11:54:36.817Z,8.86
2023-01-19T11:57:04.048Z,8.76
2023-01-19T11:59:31.131Z,8.69
2023-01-19T12:01:57.970Z,8.80
2023-01-19T12:04:25.247Z,8.62
2023-01-19T12:06:52.029Z,8.41
2023-01-19T12:09:19.321Z,8.34
2023-01-19T12:11:46.219Z,8.53
2023-01-19T12:14:13.578Z,8.62
2023-01-19T12:16:46.970Z,8.34
2023-01-19T12:19:14.009Z,8.53
2023-01-19T12:21:40.998Z,8.61
2023-01-19T12:24:08.173Z,8.99
2023-01-19T12:26:35.509Z,9.14
2023-01-19T12:29:02.208Z,9.20
2023-01-19T12:31:28.995Z,8.72
2023-01-19T12:33:55.928Z,8.58
2023-01-19T12:36:22.665Z,8.94
2023-01-19T12:38:49.406Z,8.88
2023-01-19T12:41:16.259Z,8.86
2023-01-19T12:43:43.018Z,8.96
2023-01-19T12:46:09.752Z,9.12
2023-01-19T12:48:36.613Z,9.39
2023-01-19T12:51:03.461Z,9.53
2023-01-19T12:53:30.238Z,8.61
2023-01-19T12:55:56.994Z,8.51
2023-01-19T12:58:24.101Z,8.76
2023-01-19T13:00:50.933Z,8.34
2023-01-19T13:03:19.093Z,8.88
2023-01-19T13:05:45.986Z,8.68
2023-01-19T13:08:12.815Z,8.78
2023-01-19T13:10:39.743Z,8.92
2023-01-19T13:13:06.540Z,9.05
2023-01-19T13:15:33.461Z,9.17
2023-01-19T13:18:00.243Z,9.29
2023-01-19T13:20:26.927Z,9.51
2023-01-19T13:22:53.674Z,9.52
2023-01-19T13:25:20.452Z,9.66
2023-01-19T13:27:49.619Z,9.76
2023-01-19T13:30:16.889Z,9.84
2023-01-19T13:32:44.049Z,9.85
2023-01-19T13:35:10.820Z,10.03
2023-01-19T13:37:37.601Z,9.70
2023-01-19T13:40:04.444Z,9.16
2023-01-19T13:42:31.239Z,9.16
2023-01-19T13:44:57.905Z,9.22
2023-01-19T13:47:24.695Z,9.10
2023-01-19T13:49:51.443Z,9.27
2023-01-19T13:52:18.345Z,9.47
2023-01-19T13:54:45.532Z,9.58
2023-01-19T13:57:12.598Z,9.65
2023-01-19T13:59:39.395Z,9.56
2023-01-19T14:02:06.323Z,9.59
2023-01-19T14:04:33.024Z,9.46
2023-01-19T14:06:59.803Z,9.48
2023-01-19T14:09:26.591Z,9.60
2023-01-19T14:11:53.489Z,9.28
2023-01-19T14:14:20.209Z,9.00
2023-01-19T14:16:46.976Z,9.07
2023-01-19T14:19:13.938Z,9.34
2023-01-19T14:21:40.670Z,9.42
2023-01-19T14:24:07.453Z,9.54
2023-01-19T14:26:34.376Z,9.57
2023-01-19T14:29:01.077Z,9.49
2023-01-19T14:31:27.897Z,9.52
2023-01-19T14:33:54.737Z,9.52
2023-01-19T14:36:21.492Z,9.56
2023-01-19T14:38:48.230Z,9.48
2023-01-19T14:41:15.155Z,9.66
2023-01-19T14:43:41.957Z,9.60
2023-01-19T14:46:08.676Z,9.64
2023-01-19T14:48:35.878Z,9.64
2023-01-19T14:51:03.787Z,9.65
2023-01-19T14:53:30.817Z,9.69
2023-01-19T14:55:57.569Z,9.58
2023-01-19T14:58:24.513Z,9.56
2023-01-19T15:00:51.248Z,9.25
2023-01-19T15:03:18.075Z,9.11
2023-01-19T15:05:45.204Z,9.22
2023-01-19T15:08:11.951Z,9.23
2023-01-19T15:10:38.611Z,9.20
2023-01-19T15:13:05.458Z,8.95
2023-01-19T15:15:32.269Z,9.15
2023-01-19T15:17:59.033Z,9.27
2023-01-19T15:20:25.858Z,9.12
2023-01-19T15:22:52.601Z,9.18
2023-01-19T15:25:19.417Z,9.30
2023-01-19T15:27:46.101Z,9.35
2023-01-19T15:30:12.908Z,9.18
2023-01-19T15:32:39.620Z,9.02
2023-01-19T15:35:07.078Z,8.98
2023-01-19T15:37:34.151Z,9.05
2023-01-19T15:40:00.852Z,9.01
2023-01-19T15:42:27.461Z,9.03
2023-01-19T15:44:54.454Z,8.88
2023-01-19T15:47:21.187Z,8.81
2023-01-19T15:49:47.889Z,8.68
2023-01-19T15:52:16.953Z,8.74
2023-01-19T15:54:43.745Z,8.70
2023-01-19T15:57:10.511Z,8.75
2023-01-19T15:59:37.303Z,8.73
2023-01-19T16:02:04.210Z,8.71
2023-01-19T16:04:31.068Z,8.66
2023-01-19T16:06:57.819Z,8.56
2023-01-19T16:09:24.641Z,8.59
2023-01-19T16:11:51.296Z,8.37
2023-01-19T16:14:18.003Z,8.28
2023-01-19T16:16:44.702Z,8.47
2023-01-19T16:19:11.347Z,8.47
2023-01-19T16:21:37.980Z,8.16
2023-01-19T16:24:04.688Z,8.20
2023-01-19T16:26:31.386Z,8.17
2023-01-19T16:28:58.038Z,8.15
2023-01-19T16:31:24.716Z,8.19
2023-01-19T16:33:51.378Z,8.36
2023-01-19T16:36:18.089Z,8.36
2023-01-19T16:38:44.762Z,8.20
2023-01-19T16:41:11.442Z,8.20
2023-01-19T16:43:38.104Z,8.20
2023-01-19T16:46:04.790Z,8.07
2023-01-19T16:48:31.522Z,8.01
2023-01-19T16:50:58.140Z,7.82
2023-01-19T16:53:24.811Z,7.89
2023-01-19T16:55:51.465Z,7.85
2023-01-19T16:58:18.100Z,7.91
2023-01-19T17:00:44.819Z,7.92
2023-01-19T17:03:11.512Z,8.06
2023-01-19T17:05:38.233Z,7.86
2023-01-19T17:08:04.917Z,7.92
2023-01-19T17:10:31.608Z,7.49
2023-01-19T17:12:58.279Z,7.46
2023-01-19T17:15:24.983Z,7.43
2023-01-19T17:17:51.707Z,7.77
2023-01-19T17:20:18.355Z,7.93
2023-01-19T17:22:44.985Z,7.95
2023-01-19T17:25:11.641Z,7.84
2023-01-19T17:27:38.237Z,7.63
2023-01-19T17:30:04.915Z,7.61
2023-01-19T17:32:31.627Z,7.63
2023-01-19T17:34:58.288Z,7.49
2023-01-19T17:37:24.915Z,7.30
2023-01-19T17:39:51.659Z,7.23
2023-01-19T17:42:18.286Z,7.43
2023-01-19T17:44:44.937Z,7.32
2023-01-19T17:47:11.609Z,7.43
2023-01-19T17:49:38.332Z,7.33
2023-01-19T17:52:04.982Z,7.26
2023-01-19T17:54:31.704Z,7.30
2023-01-19T17:56:58.370Z,7.15
2023-01-19T17:59:25.008Z,7.07
2023-01-19T18:01:51.708Z,7.08
2023-01-19T18:04:20.705Z,7.12
2023-01-19T18:06:47.398Z,7.03
2023-01-19T18:09:14.067Z,6.84
2023-01-19T18:11:40.770Z,6.80
2023-01-19T18:14:07.436Z,6.70
2023-01-19T18:16:34.317Z,6.75
2023-01-19T18:19:01.035Z,6.63
2023-01-19T18:21:27.666Z,6.50
2023-01-19T18:23:54.268Z,6.61
2023-01-19T18:26:20.959Z,6.50
2023-01-19T18:28:47.617Z,6.16
2023-01-19T18:31:14.416Z,6.24
2023-01-19T18:33:41.208Z,6.34
2023-01-19T18:36:07.903Z,6.33
2023-01-19T18:38:34.547Z,6.39
2023-01-19T18:41:01.183Z,6.13
2023-01-19T18:43:27.907Z,6.25
2023-01-19T18:45:54.601Z,5.70
2023-01-19T18:48:21.271Z,6.00
2023-01-19T18:50:47.914Z,6.27
2023-01-19T18:53:14.612Z,6.13
2023-01-19T18:55:41.323Z,5.72
2023-01-19T18:58:07.936Z,5.33
2023-01-19T19:00:34.586Z,5.98
2023-01-19T19:03:01.254Z,6.28
2023-01-19T19:05:27.991Z,6.38
2023-01-19T19:07:54.715Z,6.07
2023-01-19T19:10:21.393Z,5.98
2023-01-19T19:12:48.144Z,6.21
2023-01-19T19:15:14.784Z,5.87
2023-01-19T19:17:41.406Z,5.97
2023-01-19T19:22:52.438Z,5.86
2023-01-19T19:25:19.141Z,6.18
2023-01-19T19:27:45.861Z,6.39
2023-01-19T19:30:12.820Z,6.26
2023-01-19T19:32:39.687Z,6.12
2023-01-19T19:35:06.309Z,5.85
2023-01-19T19:37:32.945Z,6.23
2023-01-19T19:39:59.619Z,6.39
2023-01-19T19:42:26.283Z,6.16
2023-01-19T19:44:52.962Z,6.34
2023-01-19T19:47:19.634Z,6.57
2023-01-19T19:49:46.356Z,6.35
2023-01-19T19:52:13.012Z,6.48
2023-01-19T19:54:39.648Z,6.51
2023-01-19T19:57:08.502Z,6.61
2023-01-19T19:59:35.120Z,6.70
2023-01-19T20:02:01.869Z,6.68
2023-01-19T20:04:28.546Z,6.51
2023-01-19T20:06:55.180Z,6.58
2023-01-19T20:09:21.814Z,6.64
2023-01-19T20:11:48.508Z,6.60
2023-01-19T20:14:15.124Z,6.64
2023-01-19T20:16:41.762Z,6.36
2023-01-19T20:19:08.446Z,6.46
2023-01-19T20:21:35.247Z,6.67
2023-01-19T20:24:01.961Z,6.70
2023-01-19T20:26:28.624Z,6.71
2023-01-19T20:28:55.290Z,6.73
2023-01-19T20:31:22.069Z,6.61
2023-01-19T20:33:48.825Z,6.56
2023-01-19T20:36:15.492Z,6.63
2023-01-19T20:38:42.306Z,6.60
2023-01-19T20:41:09.024Z,6.55
2023-01-19T20:43:35.681Z,6.58
2023-01-19T20:46:02.443Z,6.62
2023-01-19T20:48:29.107Z,6.64
2023-01-19T20:50:55.814Z,6.69
2023-01-19T20:53:22.475Z,6.64
2023-01-19T20:55:49.139Z,6.66
2023-01-19T20:58:15.799Z,6.79
2023-01-19T21:00:42.711Z,6.73
2023-01-19T21:03:09.401Z,6.68
2023-01-19T21:05:36.048Z,6.31
2023-01-19T21:08:02.667Z,6.35
2023-01-19T21:10:29.324Z,6.45
2023-01-19T21:12:55.927Z,6.48
2023-01-19T21:15:22.565Z,6.33
2023-01-19T21:17:49.258Z,6.46
2023-01-19T21:20:15.918Z,6.63
2023-01-19T21:22:42.625Z,6.65
2023-01-19T21:25:09.359Z,6.70
2023-01-19T21:27:36.050Z,6.46
2023-01-19T21:30:02.737Z,6.52
2023-01-19T21:32:29.449Z,6.37
2023-01-19T21:34:56.078Z,6.43
2023-01-19T21:37:22.798Z,6.48
2023-01-19T21:39:49.494Z,6.56
2023-01-19T21:42:16.223Z,6.62
2023-01-19T21:44:42.868Z,6.53
2023-01-19T21:47:09.499Z,6.48
2023-01-19T21:49:36.193Z,6.43
2023-01-19T21:52:02.901Z,6.57
2023-01-19T21:54:29.599Z,6.15
2023-01-19T21:56:56.268Z,6.21
2023-01-19T21:59:22.888Z,6.48
2023-01-19T22:01:49.635Z,6.58
2023-01-19T22:04:16.559Z,6.46
2023-01-19T22:06:43.168Z,6.43
2023-01-19T22:09:09.846Z,6.26
2023-01-19T22:11:36.502Z,6.44
2023-01-19T22:14:03.288Z,6.47
2023-01-19T22:16:29.948Z,6.46
2023-01-19T22:18:56.645Z,6.49
2023-01-19T22:21:23.320Z,6.13
2023-01-19T22:23:49.987Z,6.23
2023-01-19T22:26:16.604Z,6.21
2023-01-19T22:28:43.247Z,6.25
2023-01-19T22:31:10.005Z,6.37
2023-01-19T22:33:36.664Z,6.33
2023-01-19T22:36:03.351Z,6.33
2023-01-19T22:38:30.056Z,6.36
2023-01-19T22:40:56.708Z,6.36
2023-01-19T22:43:23.433Z,6.29
2023-01-19T22:45:50.175Z,6.15
2023-01-19T22:48:16.835Z,6.19
2023-01-19T22:50:43.518Z,6.01
2023-01-19T22:53:10.210Z,6.22
2023-01-19T22:55:36.850Z,6.33
2023-01-19T22:58:03.500Z,6.38
2023-01-19T23:00:30.149Z,6.50
2023-01-19T23:02:56.824Z,6.35
2023-01-19T23:05:23.513Z,6.32
2023-01-19T23:07:50.208Z,6.27
2023-01-19T23:10:16.830Z,6.20
2023-01-19T23:12:43.500Z,6.37
2023-01-19T23:15:10.194Z,6.09
2023-01-19T23:17:36.892Z,6.13
2023-01-19T23:20:03.619Z,6.25
2023-01-19T23:22:30.319Z,6.26
2023-01-19T23:24:56.980Z,6.17
2023-01-19T23:27:23.628Z,6.23
2023-01-19T23:29:50.289Z,6.09
2023-01-19T23:32:16.945Z,6.07
2023-01-19T23:34:43.596Z,6.02
2023-01-19T23:37:10.322Z,5.96
2023-01-19T23:39:37.050Z,5.90
2023-01-19T23:42:03.650Z,5.89
2023-01-19T23:44:30.355Z,5.89
2023-01-19T23:46:57.988Z,5.78
2023-01-19T23:49:24.696Z,5.62
2023-01-19T23:51:51.377Z,5.61
2023-01-19T23:54:18.065Z,5.57
2023-01-19T23:56:44.771Z,5.49
2023-01-19T23:59:11.426Z,5.56
